Time;durP1;ratioP1;P1;durP2;ratioP2;P2;SDS_P1;SDS_P2;PMS_P1;PMS_P2;Temp;Humidity;BMP_temperature;BMP_pressure;BME280_temperature;BME280_humidity;BME280_pressure;Samples;Min_cycle;Max_cycle;Signal;HPM_P1;HPM_P2
2022/08/31 00:05:42;;;;;;;0.90;0.60;;;16.20;80.70;;;;;;5044590;28;20067;-61
2022/08/31 00:08:07;;;;;;;1.48;0.50;;;16.10;80.00;;;;;;5055060;28;20033;-61
2022/08/31 00:10:34;;;;;;;0.70;0.40;;;16.10;79.70;;;;;;5051543;28;20033;-61
2022/08/31 00:13:00;;;;;;;2.47;0.73;;;16.10;78.80;;;;;;5050965;28;20037;-62
2022/08/31 00:15:28;;;;;;;0.93;0.43;;;16.10;78.70;;;;;;5051130;28;20041;-60
2022/08/31 00:17:55;;;;;;;1.25;0.60;;;16.10;78.50;;;;;;5030187;28;20038;-61
2022/08/31 00:20:21;;;;;;;1.35;0.55;;;16.10;78.10;;;;;;5060650;28;20032;-62
2022/08/31 00:22:47;;;;;;;1.52;0.45;;;16.10;77.90;;;;;;5065065;28;20384;-61
2022/08/31 00:25:13;;;;;;;1.20;0.60;;;16.10;77.70;;;;;;5059056;28;20033;-61
2022/08/31 00:27:38;;;;;;;1.50;0.82;;;16.00;77.20;;;;;;5064407;28;20493;-61
2022/08/31 00:30:06;;;;;;;1.17;0.40;;;16.00;77.20;;;;;;5063214;28;20042;-61
2022/08/31 00:32:33;;;;;;;1.20;0.50;;;16.00;77.40;;;;;;5059268;28;20057;-61
2022/08/31 00:34:58;;;;;;;0.70;0.50;;;15.90;77.60;;;;;;5062603;28;20575;-61
2022/08/31 00:37:24;;;;;;;0.57;0.55;;;15.90;77.60;;;;;;5050357;28;20045;-62
2022/08/31 00:39:51;;;;;;;0.50;0.32;;;15.90;77.70;;;;;;5071116;28;20033;-61
2022/08/31 00:42:17;;;;;;;0.60;0.40;;;15.90;77.70;;;;;;5063661;28;20040;-61
2022/08/31 00:44:42;;;;;;;2.40;0.55;;;15.90;77.80;;;;;;5053216;28;20040;-61
2022/08/31 00:47:09;;;;;;;1.02;0.50;;;15.90;77.90;;;;;;5070921;28;20064;-61
2022/08/31 00:49:37;;;;;;;2.20;0.38;;;15.80;77.90;;;;;;5070290;28;20496;-61
2022/08/31 00:52:08;;;;;;;1.92;0.40;;;15.70;77.60;;;;;;5057266;28;20094;-62
2022/08/31 00:54:45;;;;;;;0.80;0.43;;;15.70;77.90;;;;;;5060066;28;20439;-61
2022/08/31 00:57:11;;;;;;;1.85;0.55;;;15.60;78.00;;;;;;5064499;28;20033;-61
2022/08/31 00:59:39;;;;;;;1.25;0.35;;;15.60;78.00;;;;;;5054125;28;20061;-61
2022/08/31 01:02:06;;;;;;;1.02;0.30;;;15.50;77.90;;;;;;5036557;28;20037;-61
2022/08/31 01:04:32;;;;;;;0.40;0.30;;;15.50;78.10;;;;;;5058430;28;20078;-61
2022/08/31 01:06:58;;;;;;;1.15;0.40;;;15.50;78.10;;;;;;5039991;28;20393;-61
2022/08/31 01:09:27;;;;;;;2.15;0.68;;;15.40;78.00;;;;;;5060073;28;20087;-61
2022/08/31 01:11:53;;;;;;;1.45;0.50;;;15.40;78.00;;;;;;5053261;28;20432;-61
2022/08/31 01:14:19;;;;;;;1.92;0.40;;;15.40;78.30;;;;;;5051477;28;20090;-61
2022/08/31 01:16:50;;;;;;;2.00;0.63;;;15.40;78.00;;;;;;5054288;28;20086;-61
2022/08/31 01:19:33;;;;;;;0.35;0.30;;;15.40;78.10;;;;;;5057871;28;20032;-61
2022/08/31 01:22:17;;;;;;;1.35;0.50;;;15.30;78.20;;;;;;5060986;28;20045;-61
2022/08/31 01:24:45;;;;;;;0.93;0.50;;;15.30;78.40;;;;;;5060793;28;20033;-61
2022/08/31 01:27:12;;;;;;;2.22;0.45;;;15.30;78.30;;;;;;5053641;28;20037;-61
2022/08/31 01:29:38;;;;;;;0.55;0.38;;;15.20;78.00;;;;;;5059848;28;20041;-61
2022/08/31 01:32:04;;;;;;;1.45;0.60;;;15.30;78.20;;;;;;5052015;28;20743;-61
2022/08/31 01:34:30;;;;;;;0.93;0.50;;;15.20;78.00;;;;;;5051635;28;20059;-60
2022/08/31 01:36:56;;;;;;;2.30;0.30;;;15.10;77.80;;;;;;5054811;28;20053;-61
2022/08/31 01:39:22;;;;;;;0.60;0.30;;;15.10;77.80;;;;;;5056555;28;20039;-61
2022/08/31 01:41:48;;;;;;;1.50;0.50;;;15.10;77.90;;;;;;5054700;28;20453;-61
2022/08/31 01:44:17;;;;;;;1.05;0.47;;;15.00;78.00;;;;;;5060792;28;22469;-61
2022/08/31 01:46:43;;;;;;;1.98;0.55;;;14.90;77.80;;;;;;5051996;28;20072;-61
2022/08/31 01:49:09;;;;;;;0.75;0.55;;;14.90;77.90;;;;;;5051961;28;20040;-61
2022/08/31 01:51:35;;;;;;;0.50;0.40;;;14.80;78.30;;;;;;5051770;28;20493;-61
2022/08/31 01:54:01;;;;;;;2.15;0.40;;;14.70;78.70;;;;;;5068586;28;20066;-61
2022/08/31 01:56:30;;;;;;;2.47;0.60;;;14.60;79.20;;;;;;5069180;28;20036;-61
2022/08/31 01:58:57;;;;;;;0.90;0.50;;;14.60;79.60;;;;;;5058795;28;20127;-61
2022/08/31 02:01:29;;;;;;;0.73;0.40;;;14.50;79.90;;;;;;5060696;28;20049;-61
2022/08/31 02:03:54;;;;;;;3.03;0.45;;;14.40;80.40;;;;;;5067101;28;20091;-61
2022/08/31 02:06:20;;;;;;;1.40;0.57;;;14.30;80.80;;;;;;5055531;28;20518;-61
2022/08/31 02:08:46;;;;;;;0.60;0.50;;;14.30;81.30;;;;;;5068839;28;20075;-61
2022/08/31 02:11:12;;;;;;;0.60;0.50;;;14.20;81.80;;;;;;5069622;28;20048;-61
2022/08/31 02:13:37;;;;;;;2.00;0.60;;;14.20;82.50;;;;;;5063783;28;20515;-61
2022/08/31 02:16:03;;;;;;;0.77;0.47;;;14.10;82.70;;;;;;5066546;28;20538;-61
2022/08/31 02:18:29;;;;;;;1.70;0.40;;;14.00;83.20;;;;;;5065601;28;20419;-61
2022/08/31 02:20:55;;;;;;;2.20;0.60;;;14.00;83.70;;;;;;5061874;28;20117;-61
2022/08/31 02:23:20;;;;;;;1.88;0.60;;;13.80;84.10;;;;;;5059233;28;20154;-61
2022/08/31 02:25:46;;;;;;;1.50;0.50;;;13.70;84.80;;;;;;5036230;28;20048;-61
2022/08/31 02:28:12;;;;;;;0.77;0.47;;;13.60;85.10;;;;;;5042823;28;20037;-61
2022/08/31 02:30:41;;;;;;;1.48;0.60;;;13.60;85.50;;;;;;5065996;28;20025;-61
2022/08/31 02:33:07;;;;;;;1.48;0.50;;;13.50;86.00;;;;;;5035151;28;20032;-61
2022/08/31 02:35:34;;;;;;;2.90;0.50;;;13.30;86.40;;;;;;5058890;28;20028;-61
2022/08/31 02:38:00;;;;;;;0.63;0.40;;;13.20;87.10;;;;;;5052080;28;20045;-61
2022/08/31 02:40:26;;;;;;;1.60;0.50;;;13.20;87.80;;;;;;5054702;28;20040;-61
2022/08/31 02:42:51;;;;;;;1.05;0.60;;;13.10;88.20;;;;;;5048531;28;20100;-61
2022/08/31 02:45:17;;;;;;;1.45;0.55;;;13.00;88.70;;;;;;5052317;28;20037;-61
2022/08/31 02:47:43;;;;;;;2.40;0.95;;;12.90;89.10;;;;;;5032228;28;20052;-60
2022/08/31 02:50:09;;;;;;;2.40;0.50;;;12.80;89.60;;;;;;5064178;28;20048;-61
2022/08/31 02:52:35;;;;;;;1.70;0.50;;;12.70;90.30;;;;;;5053152;28;20033;-61
2022/08/31 02:55:01;;;;;;;1.58;0.50;;;12.60;90.20;;;;;;5061472;28;20675;-59
2022/08/31 02:57:26;;;;;;;0.73;0.40;;;12.60;90.40;;;;;;5050440;28;20051;-61
2022/08/31 02:59:52;;;;;;;1.50;0.65;;;12.50;90.60;;;;;;5058272;28;20036;-61
2022/08/31 03:02:18;;;;;;;2.67;0.88;;;12.50;90.90;;;;;;5061409;28;20525;-61
2022/08/31 03:04:44;;;;;;;1.00;0.70;;;12.40;91.20;;;;;;5034098;28;20041;-61
2022/08/31 03:07:10;;;;;;;2.42;0.70;;;12.40;91.40;;;;;;5046703;28;20480;-61
2022/08/31 03:09:35;;;;;;;1.75;0.70;;;12.30;91.50;;;;;;5054442;28;20059;-61
2022/08/31 03:12:01;;;;;;;1.60;0.73;;;12.30;91.70;;;;;;5052393;28;20520;-61
2022/08/31 03:14:27;;;;;;;1.15;0.70;;;12.20;92.00;;;;;;5054802;28;20040;-61
2022/08/31 03:16:53;;;;;;;1.75;0.80;;;12.10;92.30;;;;;;5060885;28;20040;-61
2022/08/31 03:19:19;;;;;;;1.90;0.80;;;12.10;92.60;;;;;;5056468;28;20457;-61
2022/08/31 03:21:45;;;;;;;4.10;0.90;;;12.10;92.80;;;;;;5054340;28;20040;-61
2022/08/31 03:24:12;;;;;;;1.85;0.85;;;12.00;93.10;;;;;;5064998;28;20028;-60
2022/08/31 03:26:38;;;;;;;0.82;0.82;;;12.00;93.30;;;;;;5028701;28;20517;-60
2022/08/31 03:29:03;;;;;;;1.88;0.60;;;12.00;93.60;;;;;;5052914;28;20045;-60
2022/08/31 03:31:30;;;;;;;1.10;0.60;;;11.90;93.70;;;;;;5064259;28;20033;-60
2022/08/31 03:33:56;;;;;;;1.35;0.77;;;11.80;93.90;;;;;;5055508;28;20044;-60
2022/08/31 03:36:22;;;;;;;1.90;0.90;;;11.80;94.20;;;;;;5040949;28;20051;-60
2022/08/31 03:38:47;;;;;;;1.52;0.70;;;11.80;94.40;;;;;;5049315;28;20037;-61
2022/08/31 03:41:17;;;;;;;1.00;0.80;;;11.70;94.90;;;;;;5047639;28;20129;-61
2022/08/31 03:43:43;;;;;;;2.50;1.00;;;11.70;94.90;;;;;;5049257;28;20067;-60
2022/08/31 03:46:08;;;;;;;1.35;0.98;;;11.70;95.00;;;;;;5055056;28;20049;-60
2022/08/31 03:48:34;;;;;;;1.35;0.80;;;11.70;95.20;;;;;;5054937;28;20041;-60
2022/08/31 03:50:59;;;;;;;1.38;0.90;;;11.60;95.30;;;;;;5051315;28;20037;-60
2022/08/31 03:53:25;;;;;;;2.15;1.33;;;11.60;95.60;;;;;;5060420;28;20036;-60
2022/08/31 03:55:59;;;;;;;2.15;0.75;;;11.50;95.80;;;;;;5069558;28;20111;-60
2022/08/31 03:58:25;;;;;;;1.13;0.80;;;11.50;96.00;;;;;;5041751;28;20044;-60
2022/08/31 04:00:53;;;;;;;1.25;0.90;;;11.40;96.10;;;;;;5066920;28;20078;-60
2022/08/31 04:03:18;;;;;;;1.25;0.80;;;11.40;96.20;;;;;;5068383;28;20040;-60
2022/08/31 04:05:44;;;;;;;1.02;0.80;;;11.40;96.40;;;;;;5063451;28;20047;-60
2022/08/31 04:08:10;;;;;;;0.95;0.88;;;11.40;96.60;;;;;;5061409;28;20044;-61
2022/08/31 04:10:38;;;;;;;1.95;0.80;;;11.40;96.70;;;;;;5068910;28;20082;-60
2022/08/31 04:13:04;;;;;;;0.68;0.68;;;11.30;96.90;;;;;;5071097;28;20044;-60
2022/08/31 04:15:30;;;;;;;1.38;1.00;;;11.30;97.10;;;;;;5054380;28;20048;-60
2022/08/31 04:17:55;;;;;;;0.80;0.80;;;11.30;97.30;;;;;;5050871;28;20067;-61
2022/08/31 04:20:21;;;;;;;1.30;1.00;;;11.30;97.40;;;;;;5049835;28;20033;-60
2022/08/31 04:22:46;;;;;;;2.80;1.20;;;11.20;97.80;;;;;;5066134;28;20029;-60
2022/08/31 04:25:12;;;;;;;1.73;1.13;;;11.30;97.70;;;;;;5058436;28;20462;-60
2022/08/31 04:27:37;;;;;;;3.05;1.10;;;11.30;97.80;;;;;;5056811;28;20068;-60
2022/08/31 04:30:06;;;;;;;2.60;1.20;;;11.30;98.00;;;;;;5055029;28;20044;-60
2022/08/31 04:32:32;;;;;;;1.13;0.90;;;11.30;98.20;;;;;;5051489;28;20045;-60
2022/08/31 04:35:00;;;;;;;1.30;1.20;;;11.20;98.20;;;;;;5048962;28;20400;-60
2022/08/31 04:37:25;;;;;;;1.88;1.20;;;11.20;98.30;;;;;;5059112;28;20056;-60
2022/08/31 04:39:53;;;;;;;1.83;1.20;;;11.20;98.60;;;;;;5048558;28;20408;-59
2022/08/31 04:42:19;;;;;;;1.80;1.20;;;11.20;98.60;;;;;;5055905;28;20470;-60
2022/08/31 04:44:44;;;;;;;1.85;1.05;;;11.20;98.60;;;;;;5051320;28;20036;-61
2022/08/31 04:47:10;;;;;;;2.35;1.30;;;11.20;98.80;;;;;;5051758;28;20131;-61
2022/08/31 04:49:36;;;;;;;1.77;0.90;;;11.20;98.80;;;;;;5054266;28;20050;-61
2022/08/31 04:52:01;;;;;;;1.38;1.20;;;11.20;98.90;;;;;;5057255;28;20041;-60
2022/08/31 04:54:28;;;;;;;3.30;1.40;;;11.20;99.00;;;;;;5053293;28;20232;-60
2022/08/31 04:56:53;;;;;;;1.45;0.90;;;11.20;99.20;;;;;;5052550;28;20515;-61
2022/08/31 04:59:24;;;;;;;2.40;1.08;;;11.20;99.30;;;;;;5052780;28;20068;-60
2022/08/31 05:01:50;;;;;;;1.48;1.17;;;11.20;99.30;;;;;;5054029;28;20033;-60
2022/08/31 05:04:16;;;;;;;2.17;1.10;;;11.20;99.40;;;;;;5049758;28;21113;-60
2022/08/31 05:06:44;;;;;;;3.55;1.25;;;11.20;99.40;;;;;;5052732;28;20036;-60
2022/08/31 05:09:12;;;;;;;1.83;1.40;;;11.20;99.70;;;;;;5049929;28;20040;-60
2022/08/31 05:11:39;;;;;;;1.83;1.23;;;11.10;99.70;;;;;;5051746;28;20427;-60
2022/08/31 05:14:07;;;;;;;1.63;1.13;;;11.20;99.90;;;;;;5056468;28;20076;-60
2022/08/31 05:16:33;;;;;;;1.60;1.15;;;11.20;99.90;;;;;;5056618;28;20028;-60
2022/08/31 05:19:00;;;;;;;1.95;0.95;;;11.20;99.90;;;;;;5062349;28;20036;-61
2022/08/31 05:21:34;;;;;;;1.55;1.20;;;11.20;99.90;;;;;;5057439;28;20036;-59
2022/08/31 05:24:26;;;;;;;1.85;1.45;;;11.30;99.90;;;;;;5036878;28;20127;-60
2022/08/31 05:26:54;;;;;;;1.50;0.90;;;11.40;99.90;;;;;;5057146;28;20045;-61
2022/08/31 05:29:23;;;;;;;2.13;1.00;;;11.40;99.90;;;;;;5061667;28;20373;-61
2022/08/31 05:31:49;;;;;;;2.80;1.30;;;11.50;99.90;;;;;;5049933;28;20044;-60
2022/08/31 05:34:16;;;;;;;2.28;1.35;;;11.60;99.90;;;;;;5057093;28;20062;-61
2022/08/31 05:36:44;;;;;;;1.33;1.10;;;11.60;99.90;;;;;;5065472;28;20063;-61
2022/08/31 05:39:11;;;;;;;2.05;1.20;;;11.70;99.90;;;;;;5061158;28;20460;-61
2022/08/31 05:41:42;;;;;;;3.58;1.50;;;11.70;99.90;;;;;;5056886;28;20036;-61
2022/08/31 05:44:08;;;;;;;2.58;1.40;;;11.80;99.90;;;;;;5060035;28;20037;-60
2022/08/31 05:46:34;;;;;;;3.33;1.27;;;11.80;99.90;;;;;;5059878;28;20669;-60
2022/08/31 05:49:00;;;;;;;1.85;1.52;;;11.90;99.90;;;;;;5067877;28;20388;-60
2022/08/31 05:51:26;;;;;;;1.90;1.13;;;12.00;99.90;;;;;;5058394;28;20373;-61
2022/08/31 05:53:51;;;;;;;4.65;1.52;;;12.00;99.90;;;;;;5068513;28;20051;-59
2022/08/31 05:56:20;;;;;;;2.72;1.50;;;12.10;99.90;;;;;;5066173;28;20499;-60
2022/08/31 05:58:47;;;;;;;1.60;1.20;;;12.10;99.90;;;;;;5067319;28;20176;-60
2022/08/31 06:01:20;;;;;;;2.95;1.42;;;12.30;99.90;;;;;;5067374;28;20052;-60
2022/08/31 06:03:46;;;;;;;3.40;1.42;;;12.30;99.90;;;;;;5048359;28;21063;-61
2022/08/31 06:06:13;;;;;;;2.88;1.30;;;12.40;99.80;;;;;;5058658;28;20040;-60
2022/08/31 06:08:39;;;;;;;2.25;1.30;;;12.50;99.80;;;;;;5067095;28;20063;-60
2022/08/31 06:11:06;;;;;;;2.22;1.20;;;12.50;99.70;;;;;;5057302;28;20136;-59
2022/08/31 06:13:32;;;;;;;2.13;1.10;;;12.60;99.70;;;;;;5065794;28;20079;-60
2022/08/31 06:16:01;;;;;;;2.70;1.25;;;12.70;99.50;;;;;;5065142;28;20041;-61
2022/08/31 06:18:27;;;;;;;1.90;1.40;;;12.90;99.50;;;;;;5060237;28;20040;-61
2022/08/31 06:21:08;;;;;;;1.48;1.38;;;13.00;99.30;;;;;;5054713;28;20048;-61
2022/08/31 06:23:35;;;;;;;2.05;1.33;;;13.10;99.40;;;;;;5058802;28;20043;-61
2022/08/31 06:26:05;;;;;;;2.50;1.40;;;13.20;99.10;;;;;;5060075;28;20039;-61
2022/08/31 06:28:31;;;;;;;3.22;1.48;;;13.40;99.20;;;;;;5055796;28;20565;-60
2022/08/31 06:30:58;;;;;;;1.55;1.25;;;13.60;99.40;;;;;;5064482;28;20037;-61
2022/08/31 06:33:24;;;;;;;3.95;1.80;;;13.90;99.80;;;;;;5066794;28;20066;-61
2022/08/31 06:35:50;;;;;;;2.42;1.10;;;14.10;99.90;;;;;;5067850;28;20556;-61
2022/08/31 06:38:16;;;;;;;3.78;1.13;;;14.50;99.90;;;;;;5045071;28;20044;-61
2022/08/31 06:40:41;;;;;;;5.43;1.20;;;14.80;99.90;;;;;;5064035;28;20082;-62
2022/08/31 06:43:07;;;;;;;2.70;1.00;;;15.10;99.70;;;;;;5070220;28;20040;-61
2022/08/31 06:45:32;;;;;;;1.83;1.00;;;15.40;99.30;;;;;;5062789;28;20040;-62
2022/08/31 06:47:59;;;;;;;3.33;1.13;;;15.70;99.00;;;;;;5025156;28;20058;-61
2022/08/31 06:50:25;;;;;;;2.05;0.90;;;16.10;98.60;;;;;;5045933;28;20512;-62
2022/08/31 06:52:51;;;;;;;5.65;1.15;;;16.30;98.10;;;;;;5033092;28;20038;-62
2022/08/31 06:55:16;;;;;;;2.35;0.90;;;16.60;97.60;;;;;;5038318;28;20459;-62
2022/08/31 06:57:42;;;;;;;2.08;0.88;;;16.80;96.80;;;;;;5032148;28;20041;-61
2022/08/31 07:00:08;;;;;;;2.05;1.10;;;17.10;96.20;;;;;;5032898;28;20099;-61
2022/08/31 07:02:34;;;;;;;2.22;0.80;;;17.40;95.30;;;;;;5034331;28;20037;-61
2022/08/31 07:04:59;;;;;;;1.40;0.80;;;17.60;94.50;;;;;;5034926;28;20090;-62
2022/08/31 07:07:25;;;;;;;1.70;0.80;;;17.70;93.70;;;;;;5034414;28;20037;-62
2022/08/31 07:09:51;;;;;;;1.75;0.70;;;17.80;92.30;;;;;;5036339;28;20032;-62
2022/08/31 07:12:16;;;;;;;5.10;1.10;;;17.90;91.60;;;;;;5038987;28;20037;-62
2022/08/31 07:14:44;;;;;;;2.00;0.85;;;18.10;91.80;;;;;;5006085;28;20077;-62
2022/08/31 07:17:10;;;;;;;3.47;1.13;;;18.20;91.10;;;;;;5034365;28;20068;-61
2022/08/31 07:19:36;;;;;;;1.00;0.80;;;18.40;90.70;;;;;;5045398;28;20457;-62
2022/08/31 07:22:05;;;;;;;4.07;1.05;;;18.50;89.30;;;;;;5051366;28;20120;-63
2022/08/31 07:24:33;;;;;;;1.13;0.70;;;18.70;88.80;;;;;;5015288;28;20128;-62
2022/08/31 07:27:03;;;;;;;2.33;0.90;;;18.80;86.50;;;;;;5047204;28;20507;-62
2022/08/31 07:29:32;;;;;;;1.77;0.60;;;18.90;86.70;;;;;;5048818;28;20049;-62
2022/08/31 07:31:58;;;;;;;2.97;0.85;;;19.20;85.00;;;;;;5051413;28;20037;-62
2022/08/31 07:34:27;;;;;;;1.63;0.82;;;19.70;84.70;;;;;;5035364;28;20087;-62
2022/08/31 07:42:29;;;;;;;2.28;0.80;;;19.70;81.90;;;;;;5050633;28;20049;-63
2022/08/31 07:44:57;;;;;;;3.90;0.80;;;20.00;78.70;;;;;;5043857;28;20086;-62
2022/08/31 07:47:24;;;;;;;2.65;0.80;;;20.10;78.10;;;;;;5060265;28;20474;-61
2022/08/31 07:49:52;;;;;;;6.30;0.95;;;20.10;76.40;;;;;;5052296;28;20392;-61
2022/08/31 07:52:20;;;;;;;1.30;0.60;;;20.40;75.00;;;;;;5033269;28;20049;-63
2022/08/31 07:54:47;;;;;;;1.27;0.40;;;20.70;73.70;;;;;;5053986;28;20109;-62
2022/08/31 07:57:13;;;;;;;1.33;0.60;;;21.00;72.90;;;;;;5050496;28;20132;-62
2022/08/31 07:59:40;;;;;;;1.85;0.50;;;21.20;71.50;;;;;;5049623;28;20111;-62
2022/08/31 08:02:06;;;;;;;1.50;0.52;;;21.30;70.10;;;;;;5057314;28;20052;-63
2022/08/31 08:04:35;;;;;;;1.80;0.70;;;21.30;69.20;;;;;;5060037;28;20440;-62
2022/08/31 08:07:04;;;;;;;2.38;0.50;;;21.10;68.40;;;;;;5051259;28;20037;-64
2022/08/31 08:09:31;;;;;;;1.95;0.57;;;20.80;68.40;;;;;;5055786;28;20072;-63
2022/08/31 08:12:05;;;;;;;1.40;0.70;;;20.60;69.00;;;;;;5055012;28;20048;-66
2022/08/31 08:14:35;;;;;;;1.02;0.52;;;20.60;69.30;;;;;;5049658;28;20052;-64
2022/08/31 08:17:02;;;;;;;1.35;0.63;;;20.50;69.10;;;;;;5058034;28;20035;-62
2022/08/31 08:19:28;;;;;;;2.08;0.57;;;20.20;68.70;;;;;;5050031;28;20033;-62
2022/08/31 08:21:54;;;;;;;2.72;0.82;;;20.00;69.00;;;;;;5062126;28;20094;-62
2022/08/31 08:24:20;;;;;;;0.75;0.47;;;20.10;68.90;;;;;;5060467;28;20040;-61
2022/08/31 08:26:48;;;;;;;1.98;0.85;;;20.00;68.20;;;;;;5051452;28;20085;-63
2022/08/31 08:29:14;;;;;;;3.03;0.50;;;20.20;67.90;;;;;;5050995;28;20087;-64
2022/08/31 08:31:41;;;;;;;0.98;0.80;;;20.00;67.40;;;;;;5055030;28;20052;-63
2022/08/31 08:34:09;;;;;;;1.17;0.40;;;20.20;67.80;;;;;;5058949;28;20483;-62
2022/08/31 08:36:36;;;;;;;2.08;0.50;;;20.60;67.20;;;;;;5060960;28;20048;-65
2022/08/31 08:39:08;;;;;;;1.73;0.70;;;21.20;64.30;;;;;;5031890;28;20052;-63
2022/08/31 08:41:37;;;;;;;1.10;0.43;;;21.70;63.20;;;;;;5055686;28;20044;-62
2022/08/31 08:44:07;;;;;;;1.50;0.60;;;21.80;62.90;;;;;;5056146;28;20568;-62
2022/08/31 08:46:38;;;;;;;1.55;0.50;;;22.30;62.20;;;;;;5063776;28;20068;-63
2022/08/31 08:49:29;;;;;;;1.58;0.60;;;23.00;60.50;;;;;;5060719;28;20057;-62
2022/08/31 08:52:03;;;;;;;1.45;0.55;;;23.40;58.10;;;;;;5054394;28;20041;-64
2022/08/31 08:54:33;;;;;;;1.60;0.50;;;23.50;58.40;;;;;;5056315;28;20036;-62
2022/08/31 08:56:59;;;;;;;;;;;23.70;57.70;;;;;;5045073;28;20048;-66
2022/08/31 08:59:27;;;;;;;1.40;0.50;;;23.70;55.40;;;;;;5056200;28;19977;-62
2022/08/31 09:01:56;;;;;;;1.67;0.73;;;23.90;55.60;;;;;;5054087;28;20072;-63
2022/08/31 09:04:48;;;;;;;1.17;0.70;;;24.00;56.40;;;;;;5058178;28;20040;-64
2022/08/31 09:07:46;;;;;;;0.80;0.50;;;23.30;55.40;;;;;;5010748;28;20053;-63
2022/08/31 09:10:55;;;;;;;3.10;0.30;;;23.20;57.30;;;;;;5014321;28;20447;-61
2022/08/31 09:13:29;;;;;;;2.00;0.60;;;23.00;56.00;;;;;;5056143;28;20147;-62
2022/08/31 09:16:20;;;;;;;2.85;0.70;;;23.10;56.10;;;;;;5056775;28;20114;-62
2022/08/31 09:18:55;;;;;;;2.15;0.55;;;23.30;55.50;;;;;;5052528;28;20562;-62
2022/08/31 09:21:27;;;;;;;3.70;0.50;;;23.40;55.80;;;;;;5056143;28;20488;-64
2022/08/31 09:24:09;;;;;;;0.80;0.40;;;23.90;55.10;;;;;;5055846;28;20044;-62
2022/08/31 09:27:16;;;;;;;4.28;0.60;;;23.90;54.00;;;;;;5035214;28;20049;-66
2022/08/31 09:29:45;;;;;;;1.10;0.50;;;23.90;51.80;;;;;;5052273;28;20052;-62
2022/08/31 09:32:22;;;;;;;0.75;0.50;;;23.50;54.30;;;;;;5056712;28;20047;-63
2022/08/31 09:35:29;;;;;;;0.55;0.40;;;23.00;54.40;;;;;;5056140;28;20040;-63
2022/08/31 09:38:08;;;;;;;1.02;0.40;;;22.40;55.40;;;;;;5031620;28;20098;-64
2022/08/31 09:40:43;;;;;;;1.38;0.55;;;22.00;56.50;;;;;;5034399;28;20041;-62
2022/08/31 09:43:22;;;;;;;2.97;0.50;;;21.70;57.20;;;;;;5056518;28;20073;-62
2022/08/31 09:46:16;;;;;;;0.77;0.40;;;21.60;57.60;;;;;;5040433;28;20442;-65
2022/08/31 09:48:43;;;;;;;2.25;0.50;;;21.70;57.20;;;;;;5057648;28;20089;-62
2022/08/31 09:51:32;;;;;;;1.83;0.70;;;21.50;57.20;;;;;;5061108;28;20530;-63
2022/08/31 09:57:09;;;;;;;1.70;0.60;;;21.60;58.40;;;;;;5058730;28;20362;-62
2022/08/31 09:59:50;;;;;;;0.50;0.32;;;21.40;56.90;;;;;;5060277;28;20041;-64
2022/08/31 10:02:25;;;;;;;1.75;0.40;;;21.30;57.50;;;;;;5061156;28;20044;-64
2022/08/31 10:04:53;;;;;;;1.85;0.57;;;21.10;58.20;;;;;;5069082;28;20040;-63
2022/08/31 10:07:23;;;;;;;1.98;0.60;;;21.20;58.20;;;;;;5053000;28;20047;-61
2022/08/31 10:10:07;;;;;;;1.40;0.43;;;21.50;58.40;;;;;;5052157;28;20041;-64
2022/08/31 10:12:59;;;;;;;0.90;0.50;;;21.60;58.20;;;;;;5059802;28;20675;-63
2022/08/31 10:15:49;;;;;;;0.50;0.50;;;21.80;58.00;;;;;;5053499;28;20152;-62
2022/08/31 10:18:30;;;;;;;0.88;0.40;;;21.80;57.80;;;;;;5066910;28;20045;-60
2022/08/31 10:21:12;;;;;;;0.73;0.40;;;21.90;58.20;;;;;;5062903;28;20044;-62
2022/08/31 10:23:53;;;;;;;2.85;0.50;;;22.10;57.50;;;;;;5052974;28;20068;-64
2022/08/31 10:26:35;;;;;;;2.95;0.65;;;21.90;56.40;;;;;;5050392;28;20040;-63
2022/08/31 10:29:30;;;;;;;2.58;0.75;;;22.00;57.00;;;;;;5055993;28;20495;-62
2022/08/31 10:31:58;;;;;;;1.30;0.50;;;21.70;57.10;;;;;;5056316;28;20032;-62
2022/08/31 10:37:35;;;;;;;0.90;0.40;;;21.50;56.30;;;;;;5066641;28;20052;-63
2022/08/31 10:40:11;;;;;;;0.82;0.45;;;21.50;57.40;;;;;;5056573;28;20104;-63
2022/08/31 10:42:43;;;;;;;3.05;0.57;;;21.70;57.30;;;;;;5058479;28;20427;-64
2022/08/31 10:45:17;;;;;;;1.40;0.57;;;21.50;55.90;;;;;;5055399;28;20035;-63
2022/08/31 10:47:48;;;;;;;2.47;0.70;;;21.40;56.40;;;;;;5059806;28;20535;-62
2022/08/31 10:50:34;;;;;;;0.65;0.50;;;21.30;56.40;;;;;;5057899;28;20045;-63
2022/08/31 10:53:32;;;;;;;1.70;0.50;;;21.30;56.00;;;;;;5061559;28;20044;-63
2022/08/31 10:56:19;;;;;;;1.17;0.40;;;21.40;55.40;;;;;;5062048;28;20095;-63
2022/08/31 10:59:04;;;;;;;1.15;0.40;;;21.30;56.20;;;;;;5058767;28;20453;-62
2022/08/31 11:01:55;;;;;;;0.40;0.40;;;21.30;56.50;;;;;;5051453;28;20072;-64
2022/08/31 11:04:31;;;;;;;1.35;0.60;;;21.20;56.60;;;;;;5049899;28;20052;-64
2022/08/31 11:07:25;;;;;;;2.35;0.50;;;21.00;56.70;;;;;;5050079;28;20120;-64
2022/08/31 11:10:02;;;;;;;2.50;0.60;;;21.10;57.60;;;;;;5037617;28;20041;-62
2022/08/31 11:12:39;;;;;;;0.80;0.40;;;21.00;57.70;;;;;;5051099;28;20044;-63
2022/08/31 11:15:39;;;;;;;2.25;0.70;;;21.00;57.70;;;;;;5032566;28;20079;-63
2022/08/31 11:18:39;;;;;;;1.15;0.60;;;21.10;58.10;;;;;;5051153;28;20057;-64
2022/08/31 11:21:19;;;;;;;0.50;0.30;;;21.00;56.20;;;;;;5047141;28;20048;-60
2022/08/31 11:24:16;;;;;;;1.75;0.40;;;21.10;56.70;;;;;;5052913;28;20084;-62
2022/08/31 11:26:56;;;;;;;1.88;0.63;;;21.20;56.90;;;;;;5051142;28;20051;-64
2022/08/31 11:29:32;;;;;;;3.25;0.60;;;21.40;56.10;;;;;;5059139;28;20040;-62
2022/08/31 11:32:13;;;;;;;1.80;0.50;;;21.40;56.70;;;;;;5059619;28;20113;-63
2022/08/31 11:34:50;;;;;;;1.25;0.43;;;21.60;56.70;;;;;;5049254;28;20554;-62
2022/08/31 11:37:59;;;;;;;0.52;0.50;;;21.60;56.40;;;;;;5032123;28;20037;-62
2022/08/31 11:40:44;;;;;;;0.70;0.40;;;21.90;55.60;;;;;;5062716;28;20118;-62
2022/08/31 11:43:32;;;;;;;1.60;0.60;;;21.90;54.30;;;;;;5048322;28;20036;-63
2022/08/31 11:46:27;;;;;;;1.85;0.50;;;21.70;54.30;;;;;;5052353;28;20119;-62
2022/08/31 11:48:53;;;;;;;0.85;0.57;;;21.70;54.00;;;;;;5052787;28;20080;-62
2022/08/31 11:51:32;;;;;;;1.27;0.40;;;21.70;54.20;;;;;;5047493;28;20084;-63
2022/08/31 11:54:25;;;;;;;3.05;0.40;;;21.70;53.20;;;;;;5069411;28;20072;-63
2022/08/31 11:56:55;;;;;;;1.38;0.40;;;21.70;53.70;;;;;;5022553;28;20130;-65
2022/08/31 11:59:54;;;;;;;2.30;0.50;;;21.80;53.60;;;;;;5045223;28;20418;-64
2022/08/31 12:02:20;;;;;;;1.55;0.40;;;21.90;52.10;;;;;;5006638;28;20056;-63
2022/08/31 12:04:50;;;;;;;2.85;0.40;;;21.80;52.60;;;;;;5064205;28;20048;-63
2022/08/31 12:07:28;;;;;;;1.27;0.40;;;21.80;51.60;;;;;;5063750;28;20106;-64
2022/08/31 12:10:15;;;;;;;1.95;0.40;;;21.80;52.30;;;;;;5065220;28;20063;-62
2022/08/31 12:13:17;;;;;;;3.95;0.65;;;22.10;53.20;;;;;;5068947;28;20131;-63
2022/08/31 12:16:02;;;;;;;0.85;0.40;;;22.10;52.30;;;;;;5068726;28;20738;-64
2022/08/31 12:18:49;;;;;;;0.60;0.30;;;22.10;51.10;;;;;;5054874;28;20060;-64
2022/08/31 12:24:40;;;;;;;2.80;0.55;;;22.40;51.40;;;;;;5071404;28;20468;-63
2022/08/31 12:27:17;;;;;;;1.98;0.45;;;22.50;51.80;;;;;;5071627;28;20036;-63
2022/08/31 12:29:43;;;;;;;0.93;0.40;;;22.50;51.60;;;;;;5067265;28;20086;-63
2022/08/31 12:32:11;;;;;;;1.70;0.40;;;22.60;51.60;;;;;;5068285;28;20037;-63
2022/08/31 12:34:46;;;;;;;0.30;0.30;;;22.70;51.10;;;;;;5073081;28;20044;-63
2022/08/31 12:37:22;;;;;;;1.05;0.50;;;22.60;50.30;;;;;;5065149;28;20040;-63
2022/08/31 12:40:03;;;;;;;1.92;0.50;;;22.50;50.70;;;;;;5055115;28;20075;-63
2022/08/31 12:42:31;;;;;;;0.93;0.40;;;22.70;50.80;;;;;;5066992;28;20396;-63
2022/08/31 12:44:58;;;;;;;0.77;0.35;;;23.00;50.80;;;;;;5063604;28;20040;-63
2022/08/31 12:47:40;;;;;;;1.70;0.50;;;23.30;50.10;;;;;;5067656;28;20106;-63
2022/08/31 12:50:24;;;;;;;2.17;0.47;;;23.40;47.50;;;;;;5071892;28;20048;-63
2022/08/31 12:53:10;;;;;;;1.60;0.40;;;23.30;47.80;;;;;;5072097;28;20103;-65
2022/08/31 12:55:46;;;;;;;2.22;0.40;;;24.30;48.30;;;;;;5071902;28;20485;-64
2022/08/31 12:58:41;;;;;;;1.08;0.50;;;26.80;45.30;;;;;;5073537;28;20135;-65
2022/08/31 13:01:11;;;;;;;1.33;0.43;;;28.40;42.80;;;;;;5072374;28;20054;-64
2022/08/31 13:03:49;;;;;;;2.33;0.70;;;30.60;39.90;;;;;;5072661;28;20120;-64
2022/08/31 13:06:24;;;;;;;0.80;0.47;;;30.90;38.60;;;;;;5067585;28;20036;-63
2022/08/31 13:08:52;;;;;;;1.67;0.50;;;31.90;37.30;;;;;;5072956;28;20032;-64
2022/08/31 13:11:42;;;;;;;0.60;0.55;;;33.10;36.40;;;;;;5060517;28;20044;-64
2022/08/31 13:14:19;;;;;;;2.58;0.43;;;33.60;34.50;;;;;;5054205;28;20128;-66
2022/08/31 13:17:10;;;;;;;1.40;0.60;;;34.60;34.10;;;;;;5054148;28;20041;-65
2022/08/31 13:19:38;;;;;;;1.60;0.43;;;34.40;34.00;;;;;;5043122;28;20431;-64
2022/08/31 13:22:15;;;;;;;0.60;0.50;;;34.40;33.90;;;;;;5049109;28;20465;-64
2022/08/31 13:24:43;;;;;;;2.47;0.60;;;35.10;33.90;;;;;;5063260;28;20086;-64
2022/08/31 13:27:16;;;;;;;1.92;0.52;;;36.60;32.90;;;;;;5059990;28;20143;-64
2022/08/31 13:29:44;;;;;;;1.98;0.40;;;37.30;32.10;;;;;;5043251;28;20041;-65